Time,TemperatureF,DewpointF,PressureIn,WindDirection,WindDirectionDegrees,WindSpeedMPH,WindSpeedGustMPH,Humidity,HourlyPrecipIn,Conditions,Clouds,dailyrainin,SoftwareType,DateUTC
2013-08-04 00:02:00,85.0,49.0,29.77,NNW,340,8.0,10.0,29,0.00,,,0.00,,2013-08-04 06:02:00,
2013-08-04 00:12:00,85.0,49.0,29.77,NNW,340,8.0,10.0,29,0.00,,,0.00,,2013-08-04 06:12:00,
2013-08-04 00:22:00,85.0,49.0,29.76,NNW,341,6.0,8.0,29,0.00,,,0.00,,2013-08-04 06:22:00,
2013-08-04 00:32:00,84.0,48.0,29.76,NNW,344,5.0,8.0,29,0.00,,,0.00,,2013-08-04 06:32:00,
2013-08-04 00:43:00,84.0,48.0,29.76,NNW,344,5.0,8.0,29,0.00,,,0.00,,2013-08-04 06:43:00,
2013-08-04 00:52:00,85.0,48.0,29.77,NNW,345,4.0,7.0,28,0.00,,,0.00,,2013-08-04 06:52:00,
2013-08-04 01:02:00,85.0,48.0,29.77,NNW,345,3.0,5.0,28,0.00,,,0.00,,2013-08-04 07:02:00,
2013-08-04 01:12:00,85.0,48.0,29.77,NNW,345,3.0,5.0,28,0.00,,,0.00,,2013-08-04 07:12:00,
2013-08-04 02:02:00,83.0,48.0,29.76,North,349,10.0,12.0,30,0.00,,,0.00,,2013-08-04 08:02:00,
2013-08-04 02:12:00,83.0,48.0,29.76,North,349,10.0,12.0,30,0.00,,,0.00,,2013-08-04 08:12:00,
2013-08-04 02:32:00,82.0,50.0,29.75,North,355,7.0,11.0,33,0.00,,,0.00,,2013-08-04 08:32:00,
2013-08-04 02:43:00,82.0,50.0,29.75,North,355,7.0,11.0,33,0.00,,,0.00,,2013-08-04 08:43:00,
2013-08-04 03:02:00,81.0,51.0,29.75,NNE,17,6.0,8.0,35,0.00,,,0.00,,2013-08-04 09:02:00,
2013-08-04 03:12:00,81.0,51.0,29.75,NNE,17,6.0,8.0,35,0.00,,,0.00,,2013-08-04 09:12:00,
2013-08-04 03:32:00,80.0,51.0,29.75,NNE,27,6.0,7.0,37,0.00,,,0.00,,2013-08-04 09:32:00,
2013-08-04 03:43:00,80.0,51.0,29.75,NNE,27,6.0,7.0,37,0.00,,,0.00,,2013-08-04 09:43:00,
2013-08-04 04:32:00,79.0,54.0,29.75,ENE,65,7.0,9.0,42,0.00,,,0.00,,2013-08-04 10:32:00,
2013-08-04 04:42:00,79.0,54.0,29.75,ENE,65,7.0,9.0,42,0.00,,,0.00,,2013-08-04 10:42:00,
2013-08-04 04:53:00,75.0,53.0,29.75,ENE,75,16.0,17.0,47,0.00,,,0.00,,2013-08-04 10:53:00,
2013-08-04 05:02:00,74.0,54.0,29.74,ENE,61,13.0,16.0,50,0.00,,,0.00,,2013-08-04 11:02:00,
2013-08-04 05:12:00,74.0,54.0,29.74,ENE,61,13.0,16.0,50,0.00,,,0.00,,2013-08-04 11:12:00,
2013-08-04 05:22:00,75.0,54.0,29.74,NE,42,11.0,15.0,48,0.00,,,0.00,,2013-08-04 11:22:00,
2013-08-04 05:32:00,77.0,53.0,29.75,NE,40,6.0,12.0,43,0.00,,,0.00,,2013-08-04 11:32:00,
2013-08-04 05:42:00,77.0,53.0,29.75,NE,40,6.0,12.0,43,0.00,,,0.00,,2013-08-04 11:42:00,
2013-08-04 06:02:00,78.0,53.0,29.75,NE,40,3.0,5.0,42,0.00,,,0.00,,2013-08-04 12:02:00,
2013-08-04 06:12:00,78.0,53.0,29.75,NE,40,3.0,5.0,42,0.00,,,0.00,,2013-08-04 12:12:00,
2013-08-04 06:22:00,79.0,52.0,29.75,NE,40,0.0,0.0,39,0.00,,,0.00,,2013-08-04 12:22:00,
2013-08-04 06:32:00,79.0,52.0,29.75,NE,40,0.0,0.0,39,0.00,,,0.00,,2013-08-04 12:32:00,
2013-08-04 06:43:00,79.0,52.0,29.75,NE,40,0.0,0.0,39,0.00,,,0.00,,2013-08-04 12:43:00,
2013-08-04 06:53:00,79.0,52.0,29.76,NE,40,2.0,3.0,39,0.00,,,0.00,,2013-08-04 12:53:00,
2013-08-04 07:02:00,79.0,52.0,29.76,NE,40,1.0,3.0,39,0.00,,,0.00,,2013-08-04 13:02:00,
2013-08-04 07:12:00,79.0,52.0,29.76,NE,40,1.0,3.0,39,0.00,,,0.00,,2013-08-04 13:12:00,
2013-08-04 07:43:00,77.0,53.0,29.78,ESE,118,4.0,10.0,44,0.00,,,0.00,,2013-08-04 13:43:00,
2013-08-04 07:52:00,76.0,54.0,29.78,SE,129,2.0,6.0,46,0.00,,,0.00,,2013-08-04 13:52:00,
2013-08-04 08:02:00,76.0,53.0,29.78,SE,129,3.0,6.0,45,0.00,,,0.00,,2013-08-04 14:02:00,
2013-08-04 08:12:00,76.0,53.0,29.78,SE,129,3.0,6.0,45,0.00,,,0.00,,2013-08-04 14:12:00,
2013-08-04 08:22:00,75.0,55.0,29.79,SE,129,2.0,5.0,49,0.00,,,0.00,,2013-08-04 14:22:00,
2013-08-04 08:32:00,74.0,55.0,29.80,SE,129,4.0,6.0,52,0.00,,,0.00,,2013-08-04 14:32:00,
2013-08-04 08:43:00,74.0,55.0,29.80,SE,129,4.0,6.0,52,0.00,,,0.00,,2013-08-04 14:43:00,
2013-08-04 08:53:00,73.0,56.0,29.80,SSE,155,6.0,8.0,55,0.00,,,0.00,,2013-08-04 14:53:00,
2013-08-04 09:02:00,73.0,56.0,29.80,SSE,165,3.0,8.0,56,0.00,,,0.00,,2013-08-04 15:02:00,
2013-08-04 09:12:00,73.0,56.0,29.80,SSE,165,3.0,8.0,56,0.00,,,0.00,,2013-08-04 15:12:00,
2013-08-04 09:22:00,76.0,55.0,29.81,SSE,165,1.0,4.0,49,0.00,,,0.00,,2013-08-04 15:22:00,
2013-08-04 09:32:00,77.0,57.0,29.81,SW,221,6.0,8.0,50,0.00,,,0.00,,2013-08-04 15:32:00,
2013-08-04 09:42:00,77.0,57.0,29.81,SW,221,6.0,8.0,50,0.00,,,0.00,,2013-08-04 15:42:00,
2013-08-04 09:53:00,78.0,56.0,29.81,WSW,240,0.0,9.0,46,0.00,,,0.00,,2013-08-04 15:53:00,
2013-08-04 10:02:00,79.0,56.0,29.81,West,264,5.0,8.0,46,0.00,,,0.00,,2013-08-04 16:02:00,
2013-08-04 10:12:00,79.0,56.0,29.81,West,264,5.0,8.0,46,0.00,,,0.00,,2013-08-04 16:12:00,
2013-08-04 10:22:00,80.0,56.0,29.81,West,264,2.0,7.0,44,0.00,,,0.00,,2013-08-04 16:22:00,
2013-08-04 10:33:00,81.0,56.0,29.81,West,264,2.0,5.0,42,0.00,,,0.00,,2013-08-04 16:33:00,
2013-08-04 10:42:00,81.0,56.0,29.81,West,264,2.0,5.0,42,0.00,,,0.00,,2013-08-04 16:42:00,
2013-08-04 10:53:00,82.0,55.0,29.81,West,277,3.0,8.0,40,0.00,,,0.00,,2013-08-04 16:53:00,
2013-08-04 11:02:00,84.0,55.0,29.82,West,277,2.0,6.0,37,0.00,,,0.00,,2013-08-04 17:02:00,
2013-08-04 11:12:00,84.0,55.0,29.82,West,277,2.0,6.0,37,0.00,,,0.00,,2013-08-04 17:12:00,
2013-08-04 11:22:00,86.0,56.0,29.81,West,276,2.0,7.0,36,0.00,,,0.00,,2013-08-04 17:22:00,
2013-08-04 11:32:00,86.0,55.0,29.81,West,281,5.0,8.0,35,0.00,,,0.00,,2013-08-04 17:32:00,
2013-08-04 11:43:00,86.0,55.0,29.81,West,281,5.0,8.0,35,0.00,,,0.00,,2013-08-04 17:43:00,
2013-08-04 11:53:00,86.0,55.0,29.80,WNW,291,4.0,8.0,35,0.00,,,0.00,,2013-08-04 17:53:00,
2013-08-04 12:02:00,86.0,55.0,29.79,NW,315,3.0,12.0,35,0.00,,,0.00,,2013-08-04 18:02:00,
2013-08-04 12:12:00,86.0,55.0,29.79,NW,315,3.0,12.0,35,0.00,,,0.00,,2013-08-04 18:12:00,
2013-08-04 12:22:00,88.0,55.0,29.79,NW,316,5.0,7.0,33,0.00,,,0.00,,2013-08-04 18:22:00,
2013-08-04 12:33:00,87.0,54.0,29.78,West,261,6.0,10.0,33,0.00,,,0.00,,2013-08-04 18:33:00,
2013-08-04 12:43:00,87.0,54.0,29.78,West,261,6.0,10.0,33,0.00,,,0.00,,2013-08-04 18:43:00,
2013-08-04 12:52:00,87.0,54.0,29.77,West,275,8.0,12.0,32,0.00,,,0.00,,2013-08-04 18:52:00,
2013-08-04 13:02:00,87.0,53.0,29.77,West,272,3.0,11.0,31,0.00,,,0.00,,2013-08-04 19:02:00,
2013-08-04 13:12:00,87.0,53.0,29.77,West,272,3.0,11.0,31,0.00,,,0.00,,2013-08-04 19:12:00,
2013-08-04 13:22:00,87.0,53.0,29.76,WSW,244,3.0,13.0,31,0.00,,,0.00,,2013-08-04 19:22:00,
2013-08-04 13:32:00,87.0,53.0,29.75,West,261,2.0,9.0,31,0.00,,,0.00,,2013-08-04 19:32:00,
2013-08-04 13:43:00,87.0,53.0,29.75,West,261,2.0,9.0,31,0.00,,,0.00,,2013-08-04 19:43:00,
2013-08-04 13:53:00,89.0,54.0,29.75,SSW,196,6.0,13.0,30,0.00,,,0.00,,2013-08-04 19:53:00,
2013-08-04 14:02:00,88.0,53.0,29.74,SSW,213,7.0,15.0,30,0.00,,,0.00,,2013-08-04 20:02:00,
2013-08-04 14:12:00,88.0,53.0,29.74,SSW,213,7.0,15.0,30,0.00,,,0.00,,2013-08-04 20:12:00,
2013-08-04 14:22:00,89.0,54.0,29.74,West,281,3.0,15.0,30,0.00,,,0.00,,2013-08-04 20:22:00,
2013-08-04 14:33:00,90.0,52.0,29.74,SW,219,8.0,15.0,28,0.00,,,0.00,,2013-08-04 20:33:00,
2013-08-04 14:42:00,90.0,52.0,29.74,SW,219,8.0,15.0,28,0.00,,,0.00,,2013-08-04 20:42:00,
2013-08-04 14:53:00,90.0,51.0,29.73,SW,225,12.0,16.0,27,0.00,,,0.00,,2013-08-04 20:53:00,
2013-08-04 15:02:00,92.0,52.0,29.72,WSW,241,12.0,16.0,26,0.00,,,0.00,,2013-08-04 21:02:00,
2013-08-04 15:12:00,92.0,52.0,29.72,WSW,241,12.0,16.0,26,0.00,,,0.00,,2013-08-04 21:12:00,
2013-08-04 15:22:00,91.0,49.0,29.72,WSW,258,11.0,19.0,24,0.00,,,0.00,,2013-08-04 21:22:00,
2013-08-04 15:32:00,91.0,50.0,29.72,SSE,157,5.0,23.0,25,0.00,,,0.00,,2013-08-04 21:32:00,
2013-08-04 15:43:00,91.0,50.0,29.72,SSE,157,5.0,23.0,25,0.00,,,0.00,,2013-08-04 21:43:00,
2013-08-04 15:53:00,92.0,46.0,29.71,SW,233,12.0,21.0,21,0.00,,,0.00,,2013-08-04 21:53:00,
2013-08-04 16:01:00,92.0,46.0,29.71,SW,234,13.0,20.0,21,0.00,,,0.00,,2013-08-04 22:01:00,
2013-08-04 16:12:00,92.0,46.0,29.71,SW,234,13.0,20.0,21,0.00,,,0.00,,2013-08-04 22:12:00,
2013-08-04 16:22:00,93.0,47.0,29.70,SW,216,13.0,19.0,21,0.00,,,0.00,,2013-08-04 22:22:00,
2013-08-04 16:32:00,92.0,48.0,29.70,West,264,3.0,16.0,22,0.00,,,0.00,,2013-08-04 22:32:00,
2013-08-04 16:43:00,92.0,48.0,29.70,West,264,3.0,16.0,22,0.00,,,0.00,,2013-08-04 22:43:00,
2013-08-04 16:53:00,92.0,46.0,29.69,SW,221,12.0,19.0,21,0.00,,,0.00,,2013-08-04 22:53:00,
2013-08-04 17:02:00,91.0,47.0,29.69,SSW,208,10.0,19.0,22,0.00,,,0.00,,2013-08-04 23:02:00,
2013-08-04 17:22:00,93.0,47.0,29.69,West,275,5.0,13.0,21,0.00,,,0.00,,2013-08-04 23:22:00,
2013-08-04 17:32:00,92.0,46.0,29.68,West,264,8.0,15.0,21,0.00,,,0.00,,2013-08-04 23:32:00,
2013-08-04 17:43:00,92.0,46.0,29.68,West,264,8.0,15.0,21,0.00,,,0.00,,2013-08-04 23:43:00,
2013-08-04 17:53:00,92.0,46.0,29.68,SW,229,11.0,16.0,21,0.00,,,0.00,,2013-08-04 23:53:00,
2013-08-04 18:02:00,92.0,52.0,29.67,NW,309,17.0,21.0,26,0.00,,,0.00,,2013-08-05 00:02:00,
2013-08-04 18:12:00,92.0,52.0,29.67,NW,309,17.0,21.0,26,0.00,,,0.00,,2013-08-05 00:12:00,
2013-08-04 18:22:00,92.0,52.0,29.67,NW,318,11.0,18.0,26,0.00,,,0.00,,2013-08-05 00:22:00,
2013-08-04 18:32:00,92.0,52.0,29.66,NW,310,10.0,13.0,26,0.00,,,0.00,,2013-08-05 00:32:00,
2013-08-04 18:42:00,92.0,52.0,29.66,NW,310,10.0,13.0,26,0.00,,,0.00,,2013-08-05 00:42:00,
2013-08-04 18:53:00,92.0,51.0,29.66,NW,305,8.0,12.0,25,0.00,,,0.00,,2013-08-05 00:53:00,
2013-08-04 19:02:00,92.0,51.0,29.66,NW,317,8.0,12.0,25,0.00,,,0.00,,2013-08-05 01:02:00,
2013-08-04 19:12:00,92.0,51.0,29.66,NW,317,8.0,12.0,25,0.00,,,0.00,,2013-08-05 01:12:00,
2013-08-04 19:22:00,92.0,50.0,29.65,NW,306,7.0,11.0,24,0.00,,,0.00,,2013-08-05 01:22:00,
2013-08-04 19:32:00,92.0,51.0,29.66,NW,306,6.0,10.0,25,0.00,,,0.00,,2013-08-05 01:32:00,
2013-08-04 19:42:00,92.0,51.0,29.66,NW,306,6.0,10.0,25,0.00,,,0.00,,2013-08-05 01:42:00,
2013-08-04 19:52:00,91.0,50.0,29.67,NW,306,4.0,8.0,25,0.00,,,0.00,,2013-08-05 01:52:00,
2013-08-04 20:02:00,90.0,49.0,29.67,NW,306,4.0,7.0,25,0.00,,,0.00,,2013-08-05 02:02:00,
2013-08-04 20:12:00,90.0,49.0,29.67,NW,306,4.0,7.0,25,0.00,,,0.00,,2013-08-05 02:12:00,
2013-08-04 20:22:00,90.0,50.0,29.67,NW,306,3.0,6.0,26,0.00,,,0.00,,2013-08-05 02:22:00,
2013-08-04 20:33:00,90.0,51.0,29.68,NW,306,3.0,5.0,27,0.00,,,0.00,,2013-08-05 02:33:00,
2013-08-04 20:43:00,90.0,51.0,29.68,NW,306,3.0,5.0,27,0.00,,,0.00,,2013-08-05 02:43:00,
2013-08-04 20:53:00,89.0,51.0,29.69,NW,306,4.0,6.0,27,0.00,,,0.00,,2013-08-05 02:53:00,
2013-08-04 21:02:00,89.0,49.0,29.69,NW,304,3.0,5.0,25,0.00,,,0.00,,2013-08-05 03:02:00,
2013-08-04 21:12:00,89.0,49.0,29.69,NW,304,3.0,5.0,25,0.00,,,0.00,,2013-08-05 03:12:00,
2013-08-04 21:22:00,89.0,50.0,29.69,WSW,255,5.0,8.0,26,0.00,,,0.00,,2013-08-05 03:22:00,
2013-08-04 21:32:00,88.0,50.0,29.70,SSW,210,4.0,7.0,27,0.00,,,0.00,,2013-08-05 03:32:00,
2013-08-04 21:42:00,88.0,50.0,29.70,SSW,210,4.0,7.0,27,0.00,,,0.00,,2013-08-05 03:42:00,
2013-08-04 21:53:00,88.0,51.0,29.70,SSW,210,3.0,5.0,28,0.00,,,0.00,,2013-08-05 03:53:00,
2013-08-04 22:02:00,87.0,51.0,29.70,SSW,210,2.0,4.0,29,0.00,,,0.00,,2013-08-05 04:02:00,
2013-08-04 22:12:00,87.0,51.0,29.70,SSW,210,2.0,4.0,29,0.00,,,0.00,,2013-08-05 04:12:00,
2013-08-04 22:22:00,87.0,51.0,29.70,SSW,210,2.0,4.0,29,0.00,,,0.00,,2013-08-05 04:22:00,
2013-08-04 22:32:00,87.0,51.0,29.70,SSW,210,2.0,4.0,29,0.00,,,0.00,,2013-08-05 04:32:00,
2013-08-04 22:43:00,86.0,52.0,29.71,ENE,76,7.0,11.0,31,0.00,,,0.00,,2013-08-05 04:43:00,
2013-08-04 22:52:00,84.0,52.0,29.71,ENE,70,9.0,13.0,33,0.00,,,0.00,,2013-08-05 04:52:00,
2013-08-04 23:02:00,85.0,52.0,29.72,ENE,70,8.0,12.0,32,0.00,,,0.00,,2013-08-05 05:02:00,
2013-08-04 23:12:00,85.0,52.0,29.72,ENE,70,8.0,12.0,32,0.00,,,0.00,,2013-08-05 05:12:00,
2013-08-04 23:22:00,86.0,50.0,29.72,East,82,6.0,10.0,29,0.00,,,0.00,,2013-08-05 05:22:00,
2013-08-04 23:32:00,85.0,52.0,29.71,SW,224,12.0,17.0,32,0.00,,,0.00,,2013-08-05 05:32:00,
2013-08-04 23:42:00,85.0,52.0,29.71,SW,224,12.0,17.0,32,0.00,,,0.00,,2013-08-05 05:42:00,
2013-08-04 23:52:00,82.0,53.0,29.71,WSW,240,11.0,16.0,37,0.00,,,0.00,,2013-08-05 05:52:00,